Time;durP1;ratioP1;P1;durP2;ratioP2;P2;SDS_P1;SDS_P2;PMS_P1;PMS_P2;Temp;Humidity;BMP_temperature;BMP_pressure;BME280_temperature;BME280_humidity;BME280_pressure;Samples;Min_cycle;Max_cycle;Signal;HPM_P1;HPM_P2
2022/08/26 00:01:05;;;;;;;;;;;;;;;23.63;66.92;101413.94;4992188;28;19964;-51
2022/08/26 00:03:30;;;;;;;;;;;;;;;23.62;66.67;101406.03;4995251;28;19944;-54
2022/08/26 00:05:55;;;;;;;;;;;;;;;23.63;66.82;101413.94;4989392;28;20315;-51
2022/08/26 00:08:21;;;;;;;;;;;;;;;23.61;66.70;101410.56;4992947;28;19948;-53
2022/08/26 00:10:47;;;;;;;;;;;;;;;23.61;66.75;101405.19;4995497;28;19957;-54
2022/08/26 00:13:13;;;;;;;;;;;;;;;23.58;66.77;101401.00;4988265;28;19922;-52
2022/08/26 00:15:39;;;;;;;;;;;;;;;23.58;66.89;101402.81;4989757;28;19921;-54
2022/08/26 00:18:04;;;;;;;;;;;;;;;23.56;66.86;101400.31;4993369;28;19928;-52
2022/08/26 00:20:31;;;;;;;;;;;;;;;23.54;66.83;101394.25;4994069;28;19926;-53
2022/08/26 00:22:56;;;;;;;;;;;;;;;23.54;67.13;101398.75;4995692;28;19928;-52
2022/08/26 00:25:22;;;;;;;;;;;;;;;23.54;66.92;101393.38;4992449;28;19917;-54
2022/08/26 00:27:48;;;;;;;;;;;;;;;23.53;66.95;101386.34;4985779;28;20344;-53
2022/08/26 00:30:20;;;;;;;;;;;;;;;23.54;67.08;101382.66;4992606;28;19967;-51
2022/08/26 00:32:45;;;;;;;;;;;;;;;23.52;66.84;101384.69;4990746;28;19968;-53
2022/08/26 00:35:12;;;;;;;;;;;;;;;23.50;67.10;101390.19;4992279;28;19922;-52
2022/08/26 00:37:38;;;;;;;;;;;;;;;23.50;67.14;101392.88;4994118;28;19921;-55
2022/08/26 00:40:05;;;;;;;;;;;;;;;23.48;67.05;101388.66;4993096;28;19922;-52
2022/08/26 00:42:30;;;;;;;;;;;;;;;23.47;66.93;101385.13;4989867;28;20534;-51
2022/08/26 00:44:56;;;;;;;;;;;;;;;23.46;66.96;101386.13;4994771;28;20073;-52
2022/08/26 00:47:21;;;;;;;;;;;;;;;23.46;67.18;101388.81;4992804;28;20312;-52
2022/08/26 00:49:46;;;;;;;;;;;;;;;23.46;67.05;101385.28;4989281;28;19921;-51
2022/08/26 00:52:15;;;;;;;;;;;;;;;23.44;67.05;101383.59;4989939;28;20314;-52
2022/08/26 00:54:45;;;;;;;;;;;;;;;23.43;67.13;101383.78;4994048;28;19920;-55
2022/08/26 00:57:12;;;;;;;;;;;;;;;23.40;67.23;101384.09;4988982;28;20367;-52
2022/08/26 00:59:38;;;;;;;;;;;;;;;23.35;67.27;101381.88;4991427;28;20276;-52
2022/08/26 01:02:03;;;;;;;;;;;;;;;23.26;67.30;101380.97;4989683;28;19930;-52
2022/08/26 01:04:30;;;;;;;;;;;;;;;23.18;67.71;101374.69;4987804;28;19918;-52
2022/08/26 01:06:56;;;;;;;;;;;;;;;23.12;67.54;101368.91;4988457;28;20039;-51
2022/08/26 01:09:22;;;;;;;;;;;;;;;23.11;67.72;101371.78;4991619;28;20028;-51
2022/08/26 01:11:49;;;;;;;;;;;;;;;23.09;67.92;101374.59;4989101;28;20373;-51
2022/08/26 01:14:15;;;;;;;;;;;;;;;23.09;67.92;101369.22;4993246;28;19922;-51
2022/08/26 01:16:41;;;;;;;;;;;;;;;23.07;67.99;101371.22;4992816;28;19988;-52
2022/08/26 01:19:23;;;;;;;;;;;;;;;23.03;67.77;101380.59;4989003;28;19925;-51
2022/08/26 01:21:54;;;;;;;;;;;;;;;23.02;68.01;101378.91;4987650;28;19926;-52
2022/08/26 01:24:19;;;;;;;;;;;;;;;23.03;68.19;101377.91;4992247;28;20464;-52
2022/08/26 01:26:44;;;;;;;;;;;;;;;23.06;68.06;101374.94;4987676;28;20032;-52
2022/08/26 01:29:13;;;;;;;;;;;;;;;23.08;68.15;101380.97;4994393;28;19972;-51
2022/08/26 01:31:41;;;;;;;;;;;;;;;23.12;67.89;101378.84;4987842;28;20401;-53
2022/08/26 01:34:14;;;;;;;;;;;;;;;23.10;67.90;101376.28;4991694;28;20098;-52
2022/08/26 01:36:40;;;;;;;;;;;;;;;23.02;67.86;101373.56;4988815;28;19917;-52
2022/08/26 01:39:06;;;;;;;;;;;;;;;22.95;68.29;101372.47;4989551;28;19929;-53
2022/08/26 01:41:31;;;;;;;;;;;;;;;22.89;68.38;101367.75;4989417;28;19936;-54
2022/08/26 01:43:58;;;;;;;;;;;;;;;22.84;68.23;101377.09;4990967;28;19926;-52
2022/08/26 01:46:25;;;;;;;;;;;;;;;22.82;68.51;101368.34;4989856;28;19924;-52
2022/08/26 01:48:51;;;;;;;;;;;;;;;22.83;68.36;101361.97;4993020;28;19965;-52
2022/08/26 01:51:18;;;;;;;;;;;;;;;22.82;68.75;101365.66;4991746;28;19933;-53
2022/08/26 01:53:44;;;;;;;;;;;;;;;22.84;68.60;101368.19;4995207;28;20313;-53
2022/08/26 01:56:10;;;;;;;;;;;;;;;22.84;68.75;101361.00;4992989;28;21115;-51
2022/08/26 01:58:42;;;;;;;;;;;;;;;22.82;68.48;101362.97;4996445;28;20122;-52
2022/08/26 02:01:07;;;;;;;;;;;;;;;22.81;68.72;101360.47;4993972;28;19925;-51
2022/08/26 02:03:32;;;;;;;;;;;;;;;22.82;68.59;101357.63;4992306;28;19921;-52
2022/08/26 02:06:01;;;;;;;;;;;;;;;22.82;68.74;101357.63;4994925;28;20466;-52
2022/08/26 02:08:34;;;;;;;;;;;;;;;22.82;68.69;101362.97;4995353;28;19925;-51
2022/08/26 02:11:00;;;;;;;;;;;;;;;22.84;68.58;101354.75;4992442;28;19928;-52
2022/08/26 02:13:28;;;;;;;;;;;;;;;22.87;68.55;101356.31;4993816;28;19917;-52
2022/08/26 02:15:54;;;;;;;;;;;;;;;22.89;68.60;101362.38;4991730;28;20301;-51
2022/08/26 02:18:19;;;;;;;;;;;;;;;22.92;68.70;101362.91;5000106;28;19918;-54
2022/08/26 02:20:45;;;;;;;;;;;;;;;22.92;68.46;101357.53;4992308;28;19930;-55
2022/08/26 02:23:10;;;;;;;;;;;;;;;22.93;68.42;101358.38;4993858;28;19930;-54
2022/08/26 02:25:41;;;;;;;;;;;;;;;22.89;68.47;101352.47;4998927;28;20277;-51
2022/08/26 02:28:08;;;;;;;;;;;;;;;22.88;68.58;101360.69;4994246;28;20407;-52
2022/08/26 02:30:34;;;;;;;;;;;;;;;22.85;68.72;101364.50;4989800;28;20016;-51
2022/08/26 02:33:02;;;;;;;;;;;;;;;22.80;68.62;101362.28;4991481;28;19944;-51
2022/08/26 02:35:28;;;;;;;;;;;;;;;22.80;68.92;101361.47;4990239;28;19933;-51
2022/08/26 02:37:53;;;;;;;;;;;;;;;22.75;68.57;101364.59;4991282;28;19925;-52
2022/08/26 02:40:20;;;;;;;;;;;;;;;22.67;69.00;101354.66;4992663;28;20078;-56
2022/08/26 02:42:46;;;;;;;;;;;;;;;22.64;69.20;101354.09;4991243;28;19976;-52
2022/08/26 02:45:12;;;;;;;;;;;;;;;22.61;69.08;101354.41;4993808;28;19964;-51
2022/08/26 02:47:38;;;;;;;;;;;;;;;22.61;69.25;101349.06;4990693;28;19968;-52
2022/08/26 02:50:04;;;;;;;;;;;;;;;22.62;68.93;101351.56;4993770;28;20394;-51
2022/08/26 02:52:29;;;;;;;;;;;;;;;22.63;69.18;101347.03;4996594;28;20166;-52
2022/08/26 02:54:54;;;;;;;;;;;;;;;22.62;69.09;101350.72;4992578;28;19921;-51
2022/08/26 02:57:20;;;;;;;;;;;;;;;22.58;69.18;101344.00;4991950;28;20041;-52
2022/08/26 02:59:45;;;;;;;;;;;;;;;22.56;69.15;101340.63;4994463;28;20360;-51
2022/08/26 03:02:11;;;;;;;;;;;;;;;22.56;69.21;101340.63;4993274;28;20506;-52
2022/08/26 03:04:37;;;;;;;;;;;;;;;22.55;69.34;101342.44;4990926;28;20385;-52
2022/08/26 03:07:04;;;;;;;;;;;;;;;22.58;69.06;101341.31;4988241;28;20474;-52
2022/08/26 03:09:29;;;;;;;;;;;;;;;22.59;69.21;101340.31;4993150;28;20424;-53
2022/08/26 03:11:54;;;;;;;;;;;;;;;22.59;69.09;101337.63;4993602;28;19961;-52
2022/08/26 03:14:20;;;;;;;;;;;;;;;22.58;69.18;101338.63;5004999;28;19936;-52
2022/08/26 03:16:46;;;;;;;;;;;;;;;22.58;69.16;101336.78;4992026;28;20374;-52
2022/08/26 03:19:11;;;;;;;;;;;;;;;22.57;69.22;101336.94;4989976;28;19984;-53
2022/08/26 03:21:37;;;;;;;;;;;;;;;22.55;69.42;101330.88;4991252;28;20058;-53
2022/08/26 03:24:03;;;;;;;;;;;;;;;22.52;69.37;101335.56;4994977;28;19925;-53
2022/08/26 03:26:28;;;;;;;;;;;;;;;22.51;69.30;101328.50;4991308;28;19925;-52
2022/08/26 03:31:38;;;;;;;;;;;;;;;22.52;69.58;101327.50;4993234;28;19936;-52
2022/08/26 03:34:03;;;;;;;;;;;;;;;22.54;69.56;101327.34;4992071;28;19926;-53
2022/08/26 03:36:28;;;;;;;;;;;;;;;22.53;69.43;101321.16;4993787;28;19922;-51
2022/08/26 03:38:54;;;;;;;;;;;;;;;22.55;69.22;101318.31;4991787;28;20520;-52
2022/08/26 03:41:20;;;;;;;;;;;;;;;22.56;69.55;101320.00;4985895;28;19995;-51
2022/08/26 03:43:47;;;;;;;;;;;;;;;22.60;69.19;101325.91;4990042;28;20343;-52
2022/08/26 03:46:12;;;;;;;;;;;;;;;22.60;69.33;101323.22;4992837;28;19929;-51
2022/08/26 03:48:38;;;;;;;;;;;;;;;22.62;69.31;101326.56;4990182;28;19976;-52
2022/08/26 03:51:04;;;;;;;;;;;;;;;22.63;69.28;101323.75;4995873;28;20281;-53
2022/08/26 03:53:29;;;;;;;;;;;;;;;22.63;69.27;101321.06;4993998;28;19925;-53
2022/08/26 03:55:56;;;;;;;;;;;;;;;22.65;69.13;101316.41;4987338;28;20061;-54
2022/08/26 03:58:23;;;;;;;;;;;;;;;22.66;69.26;101322.59;4994141;28;20008;-52
2022/08/26 04:00:50;;;;;;;;;;;;;;;22.66;69.09;101314.56;4988503;28;19928;-53
2022/08/26 04:03:56;;;;;;;;;;;;;;;22.65;69.33;101319.09;4993399;28;19942;-54
2022/08/26 04:06:00;;;;;;;;;;;;;;;22.67;69.09;101316.25;4991351;28;19922;-54
2022/08/26 04:08:26;;;;;;;;;;;;;;;22.67;69.32;101324.28;4995566;28;20289;-54
2022/08/26 04:10:51;;;;;;;;;;;;;;;22.67;69.09;101325.16;4989464;28;19928;-52
2022/08/26 04:13:16;;;;;;;;;;;;;;;22.65;69.06;101319.09;4991934;28;19957;-52
2022/08/26 04:15:42;;;;;;;;;;;;;;;22.64;69.19;101319.22;5005905;28;20015;-53
2022/08/26 04:18:07;;;;;;;;;;;;;;;22.62;69.19;101324.75;4991699;28;19929;-52
2022/08/26 04:20:32;;;;;;;;;;;;;;;22.60;69.17;101326.75;4983950;28;19929;-51
2022/08/26 04:22:58;;;;;;;;;;;;;;;22.59;69.12;101329.59;4989062;28;20385;-52
2022/08/26 04:25:23;;;;;;;;;;;;;;;22.57;69.12;101320.84;4989790;28;19925;-52
2022/08/26 04:27:48;;;;;;;;;;;;;;;22.59;69.53;101324.22;4986052;28;19987;-52
2022/08/26 04:30:14;;;;;;;;;;;;;;;22.58;69.42;101318.00;4989458;28;19940;-51
2022/08/26 04:32:39;;;;;;;;;;;;;;;22.56;69.09;101316.47;4983080;28;20012;-53
2022/08/26 04:35:05;;;;;;;;;;;;;;;22.55;69.37;101317.47;4987830;28;20270;-51
2022/08/26 04:37:30;;;;;;;;;;;;;;;22.51;69.33;101317.78;4991176;28;22096;-52
2022/08/26 04:39:56;;;;;;;;;;;;;;;22.49;69.54;101311.72;4987673;28;19959;-54
2022/08/26 04:42:21;;;;;;;;;;;;;;;22.48;69.64;101312.72;4991201;28;19936;-53
2022/08/26 04:44:46;;;;;;;;;;;;;;;22.47;69.72;101311.03;4989602;28;19984;-50
2022/08/26 04:47:12;;;;;;;;;;;;;;;22.48;69.43;101307.34;4988332;28;19929;-52
2022/08/26 04:49:37;;;;;;;;;;;;;;;22.50;69.46;101313.41;4989436;28;19929;-52
2022/08/26 04:52:03;;;;;;;;;;;;;;;22.50;69.67;101310.72;4994048;28;19925;-53
2022/08/26 04:54:29;;;;;;;;;;;;;;;22.53;69.74;101313.09;4985011;28;19925;-51
2022/08/26 04:56:54;;;;;;;;;;;;;;;22.58;69.62;101315.31;4989807;28;19928;-53
2022/08/26 04:59:20;;;;;;;;;;;;;;;22.62;69.56;101313.16;4991465;28;19918;-54
2022/08/26 05:01:47;;;;;;;;;;;;;;;22.66;69.58;101311.88;4991236;28;19979;-54
2022/08/26 05:04:12;;;;;;;;;;;;;;;22.66;69.51;101309.19;4993824;28;19930;-52
2022/08/26 05:06:38;;;;;;;;;;;;;;;22.66;69.48;101304.69;4982977;28;20220;-54
2022/08/26 05:09:03;;;;;;;;;;;;;;;22.65;69.65;101305.69;4992608;28;19937;-54
2022/08/26 05:11:29;;;;;;;;;;;;;;;22.66;69.56;101309.19;4994846;28;19926;-54
2022/08/26 05:13:54;;;;;;;;;;;;;;;22.67;69.64;101306.38;4991853;28;19976;-54
2022/08/26 05:16:19;;;;;;;;;;;;;;;22.69;69.59;101308.88;4992160;28;19953;-52
2022/08/26 05:18:45;;;;;;;;;;;;;;;22.72;69.67;101311.25;4994650;28;19932;-52
2022/08/26 05:21:21;;;;;;;;;;;;;;;22.77;69.73;101308.09;4993914;28;19952;-53
2022/08/26 05:23:47;;;;;;;;;;;;;;;22.81;69.69;101313.00;4993599;28;19925;-52
2022/08/26 05:26:12;;;;;;;;;;;;;;;22.85;69.37;101313.53;4992553;28;19968;-53
2022/08/26 05:28:37;;;;;;;;;;;;;;;22.89;69.59;101320.28;4999082;28;20601;-52
2022/08/26 05:31:16;;;;;;;;;;;;;;;22.91;69.78;101312.91;5000199;28;19933;-52
2022/08/26 05:33:42;;;;;;;;;;;;;;;22.94;69.49;101307.25;4998283;28;19977;-53
2022/08/26 05:36:09;;;;;;;;;;;;;;;22.97;69.46;101311.44;4999371;28;19926;-54
2022/08/26 05:38:34;;;;;;;;;;;;;;;22.98;69.68;101313.13;4999516;28;19949;-52
2022/08/26 05:41:02;;;;;;;;;;;;;;;23.01;69.62;101310.13;5002712;28;19957;-52
2022/08/26 05:43:27;;;;;;;;;;;;;;;23.03;69.45;101310.81;5003513;28;19932;-52
2022/08/26 05:45:53;;;;;;;;;;;;;;;23.06;69.42;101318.56;5001806;28;19914;-52
2022/08/26 05:48:19;;;;;;;;;;;;;;;23.09;69.68;101304.00;4998783;28;20510;-51
2022/08/26 05:50:46;;;;;;;;;;;;;;;23.12;69.57;101315.25;5001661;28;19922;-53
2022/08/26 05:53:12;;;;;;;;;;;;;;;23.14;69.45;101313.25;5000634;28;19936;-53
2022/08/26 05:55:42;;;;;;;;;;;;;;;23.17;69.41;101306.72;5000107;28;19969;-53
2022/08/26 05:58:08;;;;;;;;;;;;;;;23.20;69.46;101308.25;4999334;28;20411;-52
2022/08/26 06:00:33;;;;;;;;;;;;;;;23.20;69.61;101311.81;4999721;28;19919;-51
2022/08/26 06:02:58;;;;;;;;;;;;;;;23.22;69.68;101311.63;5001225;28;19929;-52
2022/08/26 06:05:23;;;;;;;;;;;;;;;23.24;69.72;101312.31;4998914;28;19949;-55
2022/08/26 06:10:33;;;;;;;;;;;;;;;23.28;69.47;101311.88;4991143;28;20732;-53
2022/08/26 06:12:59;;;;;;;;;;;;;;;23.32;69.48;101315.06;5001384;28;20381;-53
2022/08/26 06:15:24;;;;;;;;;;;;;;;23.35;69.65;101313.91;4999406;28;19982;-52
2022/08/26 06:17:50;;;;;;;;;;;;;;;23.36;69.50;101316.44;4991863;28;20412;-53
2022/08/26 06:20:15;;;;;;;;;;;;;;;23.39;69.41;101315.28;4998171;28;20051;-55
2022/08/26 06:25:37;;;;;;;;;;;;;;;23.43;69.59;101319.34;4999272;28;19924;-54
2022/08/26 06:28:04;;;;;;;;;;;;;;;23.46;69.57;101318.16;4997789;28;19929;-53
2022/08/26 06:30:29;;;;;;;;;;;;;;;23.48;69.42;101321.53;4997679;28;20389;-52
2022/08/26 06:32:54;;;;;;;;;;;;;;;23.49;69.67;101326.72;4997235;28;19957;-54
2022/08/26 06:35:20;;;;;;;;;;;;;;;23.52;69.60;101323.72;4981066;28;19949;-52
2022/08/26 06:37:45;;;;;;;;;;;;;;;23.54;69.63;101323.56;4999550;28;19921;-55
2022/08/26 06:40:10;;;;;;;;;;;;;;;23.55;69.70;101325.25;4997775;28;19925;-53
2022/08/26 06:42:36;;;;;;;;;;;;;;;23.57;69.71;101328.63;4996433;28;20016;-52
2022/08/26 06:45:02;;;;;;;;;;;;;;;23.58;69.69;101330.31;4997091;28;19967;-56
2022/08/26 06:47:28;;;;;;;;;;;;;;;23.57;69.53;101326.78;4997547;28;19930;-53
2022/08/26 06:49:53;;;;;;;;;;;;;;;23.59;69.74;101327.47;4996294;28;19925;-53
2022/08/26 06:52:18;;;;;;;;;;;;;;;23.61;69.83;101330.00;4997165;28;19929;-56
2022/08/26 06:54:44;;;;;;;;;;;;;;;23.62;69.70;101326.31;4996706;28;19922;-54
2022/08/26 06:57:10;;;;;;;;;;;;;;;23.65;69.77;101319.75;4996086;28;20377;-53
2022/08/26 06:59:35;;;;;;;;;;;;;;;23.68;69.78;101325.63;4993358;28;19976;-53
2022/08/26 07:02:01;;;;;;;;;;;;;;;23.72;69.74;101326.19;4998806;28;19921;-55
2022/08/26 07:04:26;;;;;;;;;;;;;;;23.75;69.79;101325.84;4994055;28;19961;-52
2022/08/26 07:06:53;;;;;;;;;;;;;;;23.77;69.87;101323.00;4991917;28;19921;-53
2022/08/26 07:09:18;;;;;;;;;;;;;;;23.79;69.79;101318.31;4996271;28;21382;-55
2022/08/26 07:11:44;;;;;;;;;;;;;;;23.82;69.88;101321.50;4995954;28;19922;-52
2022/08/26 07:14:09;;;;;;;;;;;;;;;23.84;69.77;101318.66;4993480;28;19921;-53
2022/08/26 07:16:35;;;;;;;;;;;;;;;23.89;70.01;101321.69;4996454;28;20012;-53
2022/08/26 07:19:00;;;;;;;;;;;;;;;23.93;69.66;101315.00;4994532;28;19926;-52
2022/08/26 07:21:25;;;;;;;;;;;;;;;23.97;69.79;101316.41;4994517;28;19943;-56
2022/08/26 07:23:52;;;;;;;;;;;;;;;24.02;69.70;101314.06;4993715;28;19933;-53
2022/08/26 07:26:19;;;;;;;;;;;;;;;24.08;69.85;101322.47;4996575;28;19956;-52
2022/08/26 07:28:46;;;;;;;;;;;;;;;24.12;69.92;101321.97;4996771;28;19925;-52
2022/08/26 07:31:12;;;;;;;;;;;;;;;24.14;69.65;101314.59;4991972;28;19921;-52
2022/08/26 07:33:38;;;;;;;;;;;;;;;24.21;69.70;101309.41;4994042;28;19945;-53
2022/08/26 07:36:04;;;;;;;;;;;;;;;24.23;69.69;101307.38;4993778;28;19952;-52
2022/08/26 07:38:30;;;;;;;;;;;;;;;24.27;69.74;101302.50;4992138;28;19931;-52
2022/08/26 07:40:55;;;;;;;;;;;;;;;24.30;69.64;101300.31;4994436;28;20281;-52
2022/08/26 07:43:21;;;;;;;;;;;;;;;24.34;69.68;101304.38;4993117;28;20305;-52
2022/08/26 07:45:46;;;;;;;;;;;;;;;24.39;69.61;101301.19;4995159;28;19925;-52
2022/08/26 07:48:11;;;;;;;;;;;;;;;24.42;69.51;101306.22;4977428;28;20084;-54
2022/08/26 07:50:37;;;;;;;;;;;;;;;24.46;69.54;101295.97;4995789;28;19925;-52
2022/08/26 07:53:03;;;;;;;;;;;;;;;24.49;69.46;101301.03;4996372;28;20292;-53
2022/08/26 07:55:29;;;;;;;;;;;;;;;24.52;69.51;101295.31;4995012;28;19978;-52
2022/08/26 07:57:54;;;;;;;;;;;;;;;24.55;69.63;101295.00;4992910;28;19921;-52
2022/08/26 08:00:20;;;;;;;;;;;;;;;24.59;69.72;101292.78;4995511;28;19932;-54
2022/08/26 08:02:45;;;;;;;;;;;;;;;24.61;69.57;101299.69;4991119;28;19922;-53
2022/08/26 08:05:12;;;;;;;;;;;;;;;24.65;69.31;101301.03;4994282;28;19925;-56
2022/08/26 08:07:37;;;;;;;;;;;;;;;24.69;69.68;101289.94;4996205;28;19926;-52
2022/08/26 08:10:03;;;;;;;;;;;;;;;24.71;69.51;101288.78;5007823;28;19940;-53
2022/08/26 08:12:28;;;;;;;;;;;;;;;24.75;69.65;101292.81;4994157;28;19929;-53
2022/08/26 08:14:56;;;;;;;;;;;;;;;24.78;69.50;101291.63;4991726;28;19917;-52
2022/08/26 08:17:21;;;;;;;;;;;;;;;24.83;69.47;101291.13;4995274;28;20581;-52
2022/08/26 08:19:46;;;;;;;;;;;;;;;24.86;69.41;101286.25;4992557;28;20032;-52
2022/08/26 08:22:12;;;;;;;;;;;;;;;24.90;69.39;101279.50;4991470;28;19925;-54
2022/08/26 08:24:37;;;;;;;;;;;;;;;24.93;69.12;101281.88;4993322;28;19925;-53
2022/08/26 08:27:03;;;;;;;;;;;;;;;24.98;69.29;101272.44;4977719;28;19940;-53
2022/08/26 08:29:31;;;;;;;;;;;;;;;25.02;69.24;101274.63;4993470;28;19925;-52
2022/08/26 08:31:56;;;;;;;;;;;;;;;25.05;69.24;101273.44;4995411;28;20425;-53
2022/08/26 08:34:22;;;;;;;;;;;;;;;25.08;68.95;101265.88;4994658;28;19921;-52
2022/08/26 08:36:49;;;;;;;;;;;;;;;25.13;69.12;101265.34;4992436;28;20215;-52
2022/08/26 08:39:14;;;;;;;;;;;;;;;25.19;69.11;101269.19;4992782;28;19962;-53
2022/08/26 08:41:39;;;;;;;;;;;;;;;25.24;68.64;101267.66;4994508;28;20028;-52
2022/08/26 08:44:08;;;;;;;;;;;;;;;25.29;68.78;101264.44;5007459;28;19929;-53
2022/08/26 08:46:34;;;;;;;;;;;;;;;25.31;68.59;101267.81;4994066;28;19925;-53
2022/08/26 08:49:02;;;;;;;;;;;;;;;25.35;68.57;101262.91;4993441;28;19926;-52
2022/08/26 08:51:39;;;;;;;;;;;;;;;25.39;68.78;101256.16;4977611;28;19921;-52
2022/08/26 08:54:05;;;;;;;;;;;;;;;25.42;68.42;101253.16;4994065;28;19921;-55
2022/08/26 08:56:36;;;;;;;;;;;;;;;25.49;68.40;101259.50;4992686;28;20298;-52
2022/08/26 08:59:20;;;;;;;;;;;;;;;25.54;68.19;101254.44;4990908;28;19944;-53
2022/08/26 09:02:04;;;;;;;;;;;;;;;25.60;68.07;101247.50;4987566;28;19922;-53
2022/08/26 09:04:32;;;;;;;;;;;;;;;25.65;68.11;101249.69;4995355;28;19929;-53
2022/08/26 09:06:59;;;;;;;;;;;;;;;25.69;68.01;101248.31;4992331;28;20007;-52
2022/08/26 09:09:38;;;;;;;;;;;;;;;25.71;67.95;101246.28;4992122;28;20308;-52
2022/08/26 09:12:07;;;;;;;;;;;;;;;25.74;67.99;101247.78;4991110;28;19933;-54
2022/08/26 09:14:32;;;;;;;;;;;;;;;25.76;68.03;101243.91;4993021;28;20353;-53
2022/08/26 09:17:13;;;;;;;;;;;;;;;25.80;67.97;101245.22;4992206;28;20527;-54
2022/08/26 09:19:41;;;;;;;;;;;;;;;25.85;67.61;101239.31;4993805;28;19925;-52
2022/08/26 09:22:06;;;;;;;;;;;;;;;25.88;67.66;101236.25;4995662;28;19917;-52
2022/08/26 09:24:33;;;;;;;;;;;;;;;25.91;67.77;101241.28;4990000;28;22425;-52
2022/08/26 09:26:59;;;;;;;;;;;;;;;25.95;67.43;101241.75;4991404;28;20304;-53
2022/08/26 09:29:28;;;;;;;;;;;;;;;25.99;67.58;101237.69;4991099;28;19925;-54
2022/08/26 09:32:12;;;;;;;;;;;;;;;26.06;67.37;101230.59;4993952;28;19917;-53
2022/08/26 09:34:50;;;;;;;;;;;;;;;26.13;67.34;101234.25;4992525;28;19921;-53
2022/08/26 09:37:30;;;;;;;;;;;;;;;26.23;67.43;101228.63;4994795;28;20380;-55
2022/08/26 09:40:10;;;;;;;;;;;;;;;26.33;67.04;101233.78;4994024;28;20000;-56
2022/08/26 09:42:35;;;;;;;;;;;;;;;26.43;66.91;101233.53;4999376;28;19926;-56
2022/08/26 09:45:03;;;;;;;;;;;;;;;26.52;66.63;101226.22;4990721;28;20460;-54
2022/08/26 09:47:36;;;;;;;;;;;;;;;26.58;66.31;101233.56;4995642;28;19929;-54
2022/08/26 09:50:04;;;;;;;;;;;;;;;26.64;66.53;101227.44;4994273;28;20814;-55
2022/08/26 09:52:29;;;;;;;;;;;;;;;26.71;66.40;101230.22;4992725;28;20052;-52
2022/08/26 09:55:01;;;;;;;;;;;;;;;26.76;66.15;101228.66;4991143;28;20659;-54
2022/08/26 09:57:28;;;;;;;;;;;;;;;26.82;65.91;101226.28;4998131;28;19936;-53
2022/08/26 09:59:53;;;;;;;;;;;;;;;26.86;65.88;101222.16;4991145;28;19980;-54
2022/08/26 10:02:28;;;;;;;;;;;;;;;26.90;65.40;101213.53;4990674;28;19983;-56
2022/08/26 10:04:55;;;;;;;;;;;;;;;26.95;65.41;101215.69;4993637;28;19925;-53
2022/08/26 10:07:33;;;;;;;;;;;;;;;26.98;65.52;101214.44;4991457;28;19917;-54
2022/08/26 10:09:58;;;;;;;;;;;;;;;27.01;65.36;101220.31;4991038;28;19925;-55
2022/08/26 10:12:24;;;;;;;;;;;;;;;27.06;65.26;101208.97;4994085;28;19930;-53
2022/08/26 10:14:58;;;;;;;;;;;;;;;27.10;65.11;101212.13;4983310;28;19930;-54
2022/08/26 10:17:35;;;;;;;;;;;;;;;27.12;64.72;101205.50;4996055;28;19979;-53
2022/08/26 10:20:07;;;;;;;;;;;;;;;27.17;64.86;101207.66;4999026;28;20541;-53
2022/08/26 10:22:35;;;;;;;;;;;;;;;27.21;64.45;101209.81;4998489;28;20020;-55
2022/08/26 10:25:03;;;;;;;;;;;;;;;27.24;64.34;101197.78;5001439;28;19925;-52
2022/08/26 10:27:34;;;;;;;;;;;;;;;27.27;64.39;101200.09;4983057;28;19922;-52
2022/08/26 10:30:05;;;;;;;;;;;;;;;27.29;64.38;101183.69;4991212;28;20242;-54
2022/08/26 10:32:36;;;;;;;;;;;;;;;27.30;63.77;101180.78;4997988;28;19922;-54
2022/08/26 10:35:02;;;;;;;;;;;;;;;27.34;63.91;101186.69;4995073;28;20425;-52
2022/08/26 10:37:40;;;;;;;;;;;;;;;27.38;63.61;101177.16;4997335;28;20286;-53
2022/08/26 10:40:06;;;;;;;;;;;;;;;27.42;63.64;101181.16;4991699;28;20365;-53
2022/08/26 10:42:34;;;;;;;;;;;;;;;27.49;63.54;101181.25;4995909;28;19936;-52
2022/08/26 10:45:08;;;;;;;;;;;;;;;27.55;63.43;101172.41;4996617;28;19961;-53
2022/08/26 10:47:43;;;;;;;;;;;;;;;27.60;63.61;101164.56;4997144;28;19929;-55
2022/08/26 10:50:09;;;;;;;;;;;;;;;27.64;63.65;101163.13;4997369;28;19924;-53
2022/08/26 10:52:48;;;;;;;;;;;;;;;27.71;63.20;101159.69;4998337;28;19929;-53
2022/08/26 10:55:19;;;;;;;;;;;;;;;27.78;62.87;101160.56;4996947;28;19960;-52
2022/08/26 10:58:02;;;;;;;;;;;;;;;27.82;62.82;101157.31;4996353;28;19921;-54
2022/08/26 11:03:25;;;;;;;;;;;;;;;27.91;62.87;101144.47;4998012;28;19960;-53
2022/08/26 11:06:09;;;;;;;;;;;;;;;27.93;62.78;101150.53;4997784;28;19913;-52
2022/08/26 11:08:43;;;;;;;;;;;;;;;27.98;62.69;101144.56;4997022;28;20019;-52
2022/08/26 11:11:09;;;;;;;;;;;;;;;28.02;62.22;101134.19;4996279;28;19928;-52
2022/08/26 11:13:52;;;;;;;;;;;;;;;28.04;62.14;101132.13;4995649;28;19926;-53
2022/08/26 11:16:38;;;;;;;;;;;;;;;28.05;62.44;101117.56;4999558;28;19936;-52
2022/08/26 11:19:04;;;;;;;;;;;;;;;28.07;62.41;101113.63;4995950;28;19951;-52
2022/08/26 11:21:42;;;;;;;;;;;;;;;28.10;62.09;101110.56;4994944;28;19957;-53
2022/08/26 11:24:08;;;;;;;;;;;;;;;28.15;62.20;101096.44;4995495;28;20419;-54
2022/08/26 11:26:34;;;;;;;;;;;;;;;28.19;61.60;101095.03;4996748;28;19921;-53
2022/08/26 11:28:59;;;;;;;;;;;;;;;28.24;61.66;101089.84;4986815;28;19929;-56
2022/08/26 11:31:25;;;;;;;;;;;;;;;28.28;61.77;101084.88;4996683;28;19968;-53
2022/08/26 11:33:57;;;;;;;;;;;;;;;28.30;61.75;101088.19;4995032;28;19918;-53
2022/08/26 11:36:41;;;;;;;;;;;;;;;28.33;61.71;101081.59;4995833;28;19918;-55
2022/08/26 11:39:16;;;;;;;;;;;;;;;28.36;61.00;101070.38;4997951;28;19933;-53
2022/08/26 11:41:42;;;;;;;;;;;;;;;28.40;61.13;101067.06;4995338;28;19957;-55
2022/08/26 11:44:08;;;;;;;;;;;;;;;28.46;60.92;101065.41;4992788;28;20415;-52
2022/08/26 11:46:36;;;;;;;;;;;;;;;28.52;60.77;101070.00;4996119;28;20464;-52
2022/08/26 11:49:06;;;;;;;;;;;;;;;28.55;60.85;101069.63;4997390;28;19925;-53
2022/08/26 11:51:31;;;;;;;;;;;;;;;28.56;60.53;101060.47;4993260;28;19929;-53
2022/08/26 11:54:15;;;;;;;;;;;;;;;28.58;60.46;101055.69;4994335;28;19925;-55
2022/08/26 11:56:44;;;;;;;;;;;;;;;28.62;60.05;101052.59;4995643;28;19928;-52
2022/08/26 11:59:14;;;;;;;;;;;;;;;28.68;60.07;101044.50;4992222;28;19922;-53
2022/08/26 12:01:42;;;;;;;;;;;;;;;28.73;60.02;101041.22;4992260;28;20476;-53
2022/08/26 12:04:10;;;;;;;;;;;;;;;28.78;59.54;101041.44;4995037;28;19933;-55
2022/08/26 12:06:44;;;;;;;;;;;;;;;28.84;59.13;101037.91;4996576;28;19953;-53
2022/08/26 12:09:12;;;;;;;;;;;;;;;28.90;58.96;101028.97;4994920;28;19952;-56
2022/08/26 12:11:38;;;;;;;;;;;;;;;28.95;58.66;101022.13;4994778;28;19949;-54
2022/08/26 12:14:18;;;;;;;;;;;;;;;28.99;58.67;101015.25;4993044;28;20433;-55
2022/08/26 12:16:44;;;;;;;;;;;;;;;29.02;58.85;101020.25;4995256;28;19980;-52
2022/08/26 12:19:26;;;;;;;;;;;;;;;29.07;58.87;101017.78;4989999;28;19929;-55
2022/08/26 12:21:57;;;;;;;;;;;;;;;29.11;58.60;101021.75;4993896;28;20562;-53
2022/08/26 12:24:26;;;;;;;;;;;;;;;29.16;58.25;101015.72;4996292;28;19932;-55
2022/08/26 12:27:07;;;;;;;;;;;;;;;29.22;58.06;101014.06;5003752;28;19937;-54
2022/08/26 12:29:33;;;;;;;;;;;;;;;29.29;57.63;101014.88;4980116;28;19925;-55
2022/08/26 12:32:25;;;;;;;;;;;;;;;29.36;57.60;101018.47;4994086;28;20453;-53
2022/08/26 12:34:51;;;;;;;;;;;;;;;29.44;57.43;101004.72;4992174;28;20393;-56
2022/08/26 12:37:16;;;;;;;;;;;;;;;29.53;57.25;101012.66;4993877;28;20020;-54
2022/08/26 12:39:46;;;;;;;;;;;;;;;29.58;56.91;101002.00;4998923;28;19930;-55
2022/08/26 12:42:11;;;;;;;;;;;;;;;29.63;56.37;101010.34;5008096;28;19988;-56
2022/08/26 12:44:40;;;;;;;;;;;;;;;29.63;56.36;101002.22;4995433;28;20389;-53
2022/08/26 12:47:11;;;;;;;;;;;;;;;29.65;56.47;101003.66;4993003;28;19926;-53
2022/08/26 12:49:38;;;;;;;;;;;;;;;29.66;56.34;101004.50;4994225;28;19922;-54